sensor_id;sensor_type;location;lat;lon;timestamp;P1;durP1;ratioP1;P2;durP2;ratioP2
19735;SDS011;32064;49.310;8.646;2022-12-05T00:00:22;28.83;;;16.30;;
19735;SDS011;32064;49.310;8.646;2022-12-05T00:02:48;31.23;;;16.73;;
19735;SDS011;32064;49.310;8.646;2022-12-05T00:05:13;27.17;;;17.10;;
19735;SDS011;32064;49.310;8.646;2022-12-05T00:07:39;29.93;;;16.23;;
19735;SDS011;32064;49.310;8.646;2022-12-05T00:10:05;34.17;;;16.27;;
19735;SDS011;32064;49.310;8.646;2022-12-05T00:12:31;26.73;;;16.90;;
19735;SDS011;32064;49.310;8.646;2022-12-05T00:14:56;23.63;;;15.43;;
19735;SDS011;32064;49.310;8.646;2022-12-05T00:17:22;25.47;;;15.67;;
19735;SDS011;32064;49.310;8.646;2022-12-05T00:19:47;26.37;;;15.50;;
19735;SDS011;32064;49.310;8.646;2022-12-05T00:22:13;31.73;;;16.50;;
19735;SDS011;32064;49.310;8.646;2022-12-05T00:24:38;34.30;;;17.37;;
19735;SDS011;32064;49.310;8.646;2022-12-05T00:27:04;32.23;;;17.33;;
19735;SDS011;32064;49.310;8.646;2022-12-05T00:29:29;26.23;;;16.60;;
19735;SDS011;32064;49.310;8.646;2022-12-05T00:31:55;31.40;;;16.67;;
19735;SDS011;32064;49.310;8.646;2022-12-05T00:34:20;28.00;;;16.90;;
19735;SDS011;32064;49.310;8.646;2022-12-05T00:36:46;30.23;;;16.87;;
19735;SDS011;32064;49.310;8.646;2022-12-05T00:39:11;28.93;;;18.17;;
19735;SDS011;32064;49.310;8.646;2022-12-05T00:41:40;29.57;;;18.57;;
19735;SDS011;32064;49.310;8.646;2022-12-05T00:44:06;32.30;;;18.17;;
19735;SDS011;32064;49.310;8.646;2022-12-05T00:46:32;33.23;;;18.70;;
19735;SDS011;32064;49.310;8.646;2022-12-05T00:48:59;33.70;;;19.67;;
19735;SDS011;32064;49.310;8.646;2022-12-05T00:51:29;28.50;;;17.90;;
19735;SDS011;32064;49.310;8.646;2022-12-05T00:53:58;30.20;;;18.40;;
19735;SDS011;32064;49.310;8.646;2022-12-05T00:56:25;37.53;;;19.73;;
19735;SDS011;32064;49.310;8.646;2022-12-05T00:58:52;32.40;;;19.33;;
19735;SDS011;32064;49.310;8.646;2022-12-05T01:01:37;33.60;;;19.20;;
19735;SDS011;32064;49.310;8.646;2022-12-05T01:04:15;33.20;;;18.00;;
19735;SDS011;32064;49.310;8.646;2022-12-05T01:06:45;32.00;;;17.57;;
19735;SDS011;32064;49.310;8.646;2022-12-05T01:09:12;37.70;;;18.63;;
19735;SDS011;32064;49.310;8.646;2022-12-05T01:11:39;35.33;;;19.13;;
19735;SDS011;32064;49.310;8.646;2022-12-05T01:14:04;36.80;;;19.10;;
19735;SDS011;32064;49.310;8.646;2022-12-05T01:16:31;33.10;;;18.70;;
19735;SDS011;32064;49.310;8.646;2022-12-05T01:19:00;31.63;;;17.47;;
19735;SDS011;32064;49.310;8.646;2022-12-05T01:21:27;31.33;;;18.13;;
19735;SDS011;32064;49.310;8.646;2022-12-05T01:23:53;33.27;;;18.53;;
19735;SDS011;32064;49.310;8.646;2022-12-05T01:26:19;32.43;;;18.40;;
19735;SDS011;32064;49.310;8.646;2022-12-05T01:28:46;31.73;;;18.40;;
19735;SDS011;32064;49.310;8.646;2022-12-05T01:31:17;34.17;;;19.67;;
19735;SDS011;32064;49.310;8.646;2022-12-05T01:33:46;40.43;;;20.23;;
19735;SDS011;32064;49.310;8.646;2022-12-05T01:36:12;40.07;;;20.03;;
19735;SDS011;32064;49.310;8.646;2022-12-05T01:38:38;37.87;;;19.67;;
19735;SDS011;32064;49.310;8.646;2022-12-05T01:41:05;35.20;;;18.63;;
19735;SDS011;32064;49.310;8.646;2022-12-05T01:43:32;33.60;;;19.43;;
19735;SDS011;32064;49.310;8.646;2022-12-05T01:46:16;36.37;;;20.10;;
19735;SDS011;32064;49.310;8.646;2022-12-05T01:48:41;43.10;;;20.13;;
19735;SDS011;32064;49.310;8.646;2022-12-05T01:51:06;41.70;;;21.37;;
19735;SDS011;32064;49.310;8.646;2022-12-05T01:53:32;42.90;;;20.60;;
19735;SDS011;32064;49.310;8.646;2022-12-05T01:55:57;51.80;;;21.10;;
19735;SDS011;32064;49.310;8.646;2022-12-05T01:58:23;53.10;;;21.33;;
19735;SDS011;32064;49.310;8.646;2022-12-05T02:00:55;35.10;;;20.83;;
19735;SDS011;32064;49.310;8.646;2022-12-05T02:03:20;40.90;;;20.53;;
19735;SDS011;32064;49.310;8.646;2022-12-05T02:05:47;41.93;;;21.97;;
19735;SDS011;32064;49.310;8.646;2022-12-05T02:08:15;38.20;;;21.73;;
19735;SDS011;32064;49.310;8.646;2022-12-05T02:10:42;35.03;;;19.60;;
19735;SDS011;32064;49.310;8.646;2022-12-05T02:19:03;34.87;;;18.23;;
19735;SDS011;32064;49.310;8.646;2022-12-05T02:30:20;32.00;;;17.97;;
19735;SDS011;32064;49.310;8.646;2022-12-05T02:33:02;29.07;;;17.70;;
19735;SDS011;32064;49.310;8.646;2022-12-05T02:35:41;26.37;;;16.40;;
19735;SDS011;32064;49.310;8.646;2022-12-05T02:38:27;24.03;;;15.47;;
19735;SDS011;32064;49.310;8.646;2022-12-05T02:41:02;24.90;;;15.67;;
19735;SDS011;32064;49.310;8.646;2022-12-05T02:43:43;25.33;;;15.03;;
19735;SDS011;32064;49.310;8.646;2022-12-05T02:46:21;25.60;;;16.27;;
19735;SDS011;32064;49.310;8.646;2022-12-05T02:48:48;24.13;;;15.70;;
19735;SDS011;32064;49.310;8.646;2022-12-05T02:51:19;27.77;;;16.87;;
19735;SDS011;32064;49.310;8.646;2022-12-05T02:53:47;28.33;;;17.30;;
19735;SDS011;32064;49.310;8.646;2022-12-05T02:56:14;31.47;;;16.90;;
19735;SDS011;32064;49.310;8.646;2022-12-05T02:58:46;28.70;;;17.60;;
19735;SDS011;32064;49.310;8.646;2022-12-05T03:01:15;30.23;;;18.93;;
19735;SDS011;32064;49.310;8.646;2022-12-05T03:03:42;30.17;;;18.17;;
19735;SDS011;32064;49.310;8.646;2022-12-05T03:06:10;31.03;;;18.40;;
19735;SDS011;32064;49.310;8.646;2022-12-05T03:08:48;33.00;;;19.53;;
19735;SDS011;32064;49.310;8.646;2022-12-05T03:11:30;33.47;;;18.40;;
19735;SDS011;32064;49.310;8.646;2022-12-05T03:14:32;35.00;;;19.20;;
19735;SDS011;32064;49.310;8.646;2022-12-05T03:17:04;31.80;;;17.80;;
19735;SDS011;32064;49.310;8.646;2022-12-05T03:22:30;30.07;;;17.90;;
19735;SDS011;32064;49.310;8.646;2022-12-05T03:25:01;30.33;;;17.00;;
19735;SDS011;32064;49.310;8.646;2022-12-05T03:30:03;34.23;;;18.43;;
19735;SDS011;32064;49.310;8.646;2022-12-05T03:35:22;29.80;;;18.23;;
19735;SDS011;32064;49.310;8.646;2022-12-05T03:38:00;27.40;;;16.67;;
19735;SDS011;32064;49.310;8.646;2022-12-05T03:40:41;29.37;;;17.40;;
19735;SDS011;32064;49.310;8.646;2022-12-05T03:43:13;28.97;;;18.00;;
19735;SDS011;32064;49.310;8.646;2022-12-05T03:46:09;30.70;;;17.37;;
19735;SDS011;32064;49.310;8.646;2022-12-05T03:48:44;32.17;;;17.23;;
19735;SDS011;32064;49.310;8.646;2022-12-05T03:51:51;32.10;;;17.80;;
19735;SDS011;32064;49.310;8.646;2022-12-05T03:54:32;28.23;;;17.10;;
19735;SDS011;32064;49.310;8.646;2022-12-05T03:57:03;28.13;;;16.90;;
19735;SDS011;32064;49.310;8.646;2022-12-05T04:02:06;26.73;;;16.07;;
19735;SDS011;32064;49.310;8.646;2022-12-05T04:04:40;26.63;;;16.43;;
19735;SDS011;32064;49.310;8.646;2022-12-05T04:07:13;22.83;;;15.30;;
19735;SDS011;32064;49.310;8.646;2022-12-05T04:09:43;21.97;;;14.77;;
19735;SDS011;32064;49.310;8.646;2022-12-05T04:12:16;26.07;;;16.10;;
19735;SDS011;32064;49.310;8.646;2022-12-05T04:14:49;25.80;;;16.37;;
19735;SDS011;32064;49.310;8.646;2022-12-05T04:17:28;30.40;;;16.90;;
19735;SDS011;32064;49.310;8.646;2022-12-05T04:20:18;30.73;;;16.63;;
19735;SDS011;32064;49.310;8.646;2022-12-05T04:23:07;28.50;;;16.13;;
19735;SDS011;32064;49.310;8.646;2022-12-05T04:25:48;26.83;;;15.83;;
19735;SDS011;32064;49.310;8.646;2022-12-05T04:28:35;29.50;;;16.53;;
19735;SDS011;32064;49.310;8.646;2022-12-05T04:33:52;32.10;;;16.23;;
19735;SDS011;32064;49.310;8.646;2022-12-05T04:36:49;30.23;;;16.10;;
19735;SDS011;32064;49.310;8.646;2022-12-05T04:39:35;31.83;;;16.53;;
19735;SDS011;32064;49.310;8.646;2022-12-05T04:42:06;33.20;;;16.60;;
19735;SDS011;32064;49.310;8.646;2022-12-05T04:44:39;34.43;;;18.07;;
19735;SDS011;32064;49.310;8.646;2022-12-05T04:47:08;29.20;;;16.47;;
19735;SDS011;32064;49.310;8.646;2022-12-05T04:49:38;30.77;;;17.43;;
19735;SDS011;32064;49.310;8.646;2022-12-05T04:52:07;31.43;;;16.80;;
19735;SDS011;32064;49.310;8.646;2022-12-05T04:59:43;32.50;;;17.07;;
19735;SDS011;32064;49.310;8.646;2022-12-05T05:02:10;36.40;;;17.80;;
19735;SDS011;32064;49.310;8.646;2022-12-05T05:04:44;30.83;;;17.13;;
19735;SDS011;32064;49.310;8.646;2022-12-05T05:07:13;33.40;;;16.30;;
19735;SDS011;32064;49.310;8.646;2022-12-05T05:09:39;29.77;;;16.13;;
19735;SDS011;32064;49.310;8.646;2022-12-05T05:12:05;35.50;;;17.63;;
19735;SDS011;32064;49.310;8.646;2022-12-05T05:14:31;27.97;;;16.17;;
19735;SDS011;32064;49.310;8.646;2022-12-05T05:16:57;32.13;;;16.40;;
19735;SDS011;32064;49.310;8.646;2022-12-05T05:19:23;33.60;;;16.87;;
19735;SDS011;32064;49.310;8.646;2022-12-05T05:21:49;28.57;;;16.83;;
19735;SDS011;32064;49.310;8.646;2022-12-05T05:24:16;25.47;;;15.73;;
19735;SDS011;32064;49.310;8.646;2022-12-05T05:26:43;28.77;;;15.57;;
19735;SDS011;32064;49.310;8.646;2022-12-05T05:29:09;28.37;;;15.67;;
19735;SDS011;32064;49.310;8.646;2022-12-05T05:31:36;27.07;;;14.33;;
19735;SDS011;32064;49.310;8.646;2022-12-05T05:34:02;28.73;;;15.77;;
19735;SDS011;32064;49.310;8.646;2022-12-05T05:36:28;28.60;;;16.30;;
19735;SDS011;32064;49.310;8.646;2022-12-05T05:38:55;31.47;;;17.33;;
19735;SDS011;32064;49.310;8.646;2022-12-05T05:41:41;28.80;;;15.17;;
19735;SDS011;32064;49.310;8.646;2022-12-05T05:44:07;32.63;;;17.17;;
19735;SDS011;32064;49.310;8.646;2022-12-05T05:46:33;30.33;;;16.93;;
19735;SDS011;32064;49.310;8.646;2022-12-05T05:48:59;32.13;;;16.30;;
19735;SDS011;32064;49.310;8.646;2022-12-05T05:51:25;29.47;;;17.13;;
19735;SDS011;32064;49.310;8.646;2022-12-05T05:53:53;31.57;;;17.90;;
19735;SDS011;32064;49.310;8.646;2022-12-05T05:56:19;31.77;;;17.13;;
19735;SDS011;32064;49.310;8.646;2022-12-05T05:58:45;30.33;;;17.07;;
19735;SDS011;32064;49.310;8.646;2022-12-05T06:01:12;30.60;;;16.73;;
19735;SDS011;32064;49.310;8.646;2022-12-05T06:03:40;27.30;;;16.17;;
19735;SDS011;32064;49.310;8.646;2022-12-05T06:06:07;32.57;;;17.43;;
19735;SDS011;32064;49.310;8.646;2022-12-05T06:08:35;27.33;;;16.10;;
19735;SDS011;32064;49.310;8.646;2022-12-05T06:11:06;33.33;;;16.23;;
19735;SDS011;32064;49.310;8.646;2022-12-05T06:13:42;31.57;;;16.60;;
19735;SDS011;32064;49.310;8.646;2022-12-05T06:16:08;29.57;;;16.93;;
19735;SDS011;32064;49.310;8.646;2022-12-05T06:18:35;33.70;;;15.93;;
19735;SDS011;32064;49.310;8.646;2022-12-05T06:21:01;34.13;;;16.13;;
19735;SDS011;32064;49.310;8.646;2022-12-05T06:23:28;29.70;;;16.07;;
19735;SDS011;32064;49.310;8.646;2022-12-05T06:25:54;30.47;;;16.27;;
19735;SDS011;32064;49.310;8.646;2022-12-05T06:28:21;27.10;;;16.80;;
19735;SDS011;32064;49.310;8.646;2022-12-05T06:30:48;26.27;;;15.67;;
19735;SDS011;32064;49.310;8.646;2022-12-05T06:33:14;26.37;;;15.17;;
19735;SDS011;32064;49.310;8.646;2022-12-05T06:35:40;27.53;;;16.20;;
19735;SDS011;32064;49.310;8.646;2022-12-05T06:38:05;25.57;;;15.10;;
19735;SDS011;32064;49.310;8.646;2022-12-05T06:40:31;24.17;;;15.40;;
19735;SDS011;32064;49.310;8.646;2022-12-05T06:42:58;25.33;;;15.90;;
19735;SDS011;32064;49.310;8.646;2022-12-05T06:45:23;27.73;;;16.17;;
19735;SDS011;32064;49.310;8.646;2022-12-05T06:47:49;28.83;;;17.10;;
19735;SDS011;32064;49.310;8.646;2022-12-05T06:50:15;27.07;;;15.57;;
19735;SDS011;32064;49.310;8.646;2022-12-05T06:52:41;27.80;;;15.87;;
19735;SDS011;32064;49.310;8.646;2022-12-05T06:55:06;26.90;;;16.60;;
19735;SDS011;32064;49.310;8.646;2022-12-05T06:57:32;27.03;;;15.47;;
19735;SDS011;32064;49.310;8.646;2022-12-05T06:59:57;26.67;;;15.60;;
19735;SDS011;32064;49.310;8.646;2022-12-05T07:02:41;24.50;;;14.60;;
19735;SDS011;32064;49.310;8.646;2022-12-05T07:05:10;24.10;;;14.90;;
19735;SDS011;32064;49.310;8.646;2022-12-05T07:07:35;23.40;;;14.73;;
19735;SDS011;32064;49.310;8.646;2022-12-05T07:10:01;24.47;;;15.40;;
19735;SDS011;32064;49.310;8.646;2022-12-05T07:12:27;25.77;;;15.27;;
19735;SDS011;32064;49.310;8.646;2022-12-05T07:14:53;25.63;;;14.63;;
19735;SDS011;32064;49.310;8.646;2022-12-05T07:17:19;27.53;;;15.20;;
19735;SDS011;32064;49.310;8.646;2022-12-05T07:19:48;28.90;;;17.47;;
19735;SDS011;32064;49.310;8.646;2022-12-05T07:22:15;28.70;;;18.07;;
19735;SDS011;32064;49.310;8.646;2022-12-05T07:24:42;25.43;;;16.17;;
19735;SDS011;32064;49.310;8.646;2022-12-05T07:27:08;28.83;;;15.07;;
19735;SDS011;32064;49.310;8.646;2022-12-05T07:29:34;23.97;;;15.43;;
19735;SDS011;32064;49.310;8.646;2022-12-05T07:31:59;28.73;;;14.17;;
19735;SDS011;32064;49.310;8.646;2022-12-05T07:34:25;22.50;;;15.33;;
19735;SDS011;32064;49.310;8.646;2022-12-05T07:36:51;22.00;;;14.13;;
19735;SDS011;32064;49.310;8.646;2022-12-05T07:39:16;23.53;;;15.37;;
19735;SDS011;32064;49.310;8.646;2022-12-05T07:41:42;26.57;;;14.40;;
19735;SDS011;32064;49.310;8.646;2022-12-05T07:44:08;24.07;;;14.00;;
19735;SDS011;32064;49.310;8.646;2022-12-05T07:46:36;23.67;;;14.63;;
19735;SDS011;32064;49.310;8.646;2022-12-05T07:49:01;22.83;;;14.03;;
19735;SDS011;32064;49.310;8.646;2022-12-05T07:51:27;21.73;;;14.40;;
19735;SDS011;32064;49.310;8.646;2022-12-05T07:53:52;23.03;;;14.73;;
19735;SDS011;32064;49.310;8.646;2022-12-05T07:56:17;24.63;;;14.53;;
19735;SDS011;32064;49.310;8.646;2022-12-05T07:58:44;19.90;;;13.87;;
19735;SDS011;32064;49.310;8.646;2022-12-05T08:01:12;17.70;;;12.07;;
19735;SDS011;32064;49.310;8.646;2022-12-05T08:03:42;18.43;;;12.73;;
19735;SDS011;32064;49.310;8.646;2022-12-05T08:06:12;20.60;;;12.83;;
19735;SDS011;32064;49.310;8.646;2022-12-05T08:08:39;15.63;;;11.77;;
19735;SDS011;32064;49.310;8.646;2022-12-05T08:11:09;15.93;;;12.43;;
19735;SDS011;32064;49.310;8.646;2022-12-05T08:13:36;20.47;;;12.27;;
19735;SDS011;32064;49.310;8.646;2022-12-05T08:16:03;16.37;;;11.97;;
19735;SDS011;32064;49.310;8.646;2022-12-05T08:18:30;21.27;;;13.47;;
19735;SDS011;32064;49.310;8.646;2022-12-05T08:21:03;17.63;;;12.67;;
19735;SDS011;32064;49.310;8.646;2022-12-05T08:23:30;15.87;;;11.90;;
19735;SDS011;32064;49.310;8.646;2022-12-05T08:25:59;14.47;;;10.27;;
19735;SDS011;32064;49.310;8.646;2022-12-05T08:28:28;16.33;;;11.27;;
19735;SDS011;32064;49.310;8.646;2022-12-05T08:30:55;15.63;;;11.67;;
19735;SDS011;32064;49.310;8.646;2022-12-05T08:33:20;15.77;;;11.43;;
19735;SDS011;32064;49.310;8.646;2022-12-05T08:35:45;15.40;;;11.77;;
19735;SDS011;32064;49.310;8.646;2022-12-05T08:38:11;15.53;;;11.57;;
19735;SDS011;32064;49.310;8.646;2022-12-05T08:40:36;15.70;;;11.17;;
19735;SDS011;32064;49.310;8.646;2022-12-05T08:43:01;16.10;;;10.73;;
19735;SDS011;32064;49.310;8.646;2022-12-05T08:45:27;16.63;;;10.90;;
19735;SDS011;32064;49.310;8.646;2022-12-05T08:47:52;15.37;;;11.43;;
19735;SDS011;32064;49.310;8.646;2022-12-05T08:50:18;18.33;;;10.27;;
19735;SDS011;32064;49.310;8.646;2022-12-05T08:52:43;16.37;;;10.87;;
19735;SDS011;32064;49.310;8.646;2022-12-05T08:55:08;15.37;;;10.50;;
19735;SDS011;32064;49.310;8.646;2022-12-05T08:57:34;13.70;;;10.47;;
19735;SDS011;32064;49.310;8.646;2022-12-05T08:59:59;13.43;;;10.73;;
19735;SDS011;32064;49.310;8.646;2022-12-05T09:02:25;14.23;;;11.13;;
19735;SDS011;32064;49.310;8.646;2022-12-05T09:04:50;13.53;;;10.63;;
19735;SDS011;32064;49.310;8.646;2022-12-05T09:07:18;14.37;;;10.37;;
19735;SDS011;32064;49.310;8.646;2022-12-05T09:09:44;16.80;;;11.43;;
19735;SDS011;32064;49.310;8.646;2022-12-05T09:12:09;16.93;;;11.10;;
19735;SDS011;32064;49.310;8.646;2022-12-05T09:14:35;15.13;;;10.87;;
19735;SDS011;32064;49.310;8.646;2022-12-05T09:17:00;17.83;;;12.77;;
19735;SDS011;32064;49.310;8.646;2022-12-05T09:19:26;15.73;;;11.80;;
19735;SDS011;32064;49.310;8.646;2022-12-05T09:21:52;16.17;;;11.53;;
19735;SDS011;32064;49.310;8.646;2022-12-05T09:24:18;16.43;;;12.20;;
19735;SDS011;32064;49.310;8.646;2022-12-05T09:26:44;16.27;;;11.40;;
19735;SDS011;32064;49.310;8.646;2022-12-05T09:29:11;14.03;;;10.67;;
19735;SDS011;32064;49.310;8.646;2022-12-05T09:31:37;13.93;;;11.30;;
19735;SDS011;32064;49.310;8.646;2022-12-05T09:34:03;15.63;;;11.27;;
19735;SDS011;32064;49.310;8.646;2022-12-05T09:36:29;15.77;;;11.03;;
19735;SDS011;32064;49.310;8.646;2022-12-05T09:38:58;12.87;;;10.37;;
19735;SDS011;32064;49.310;8.646;2022-12-05T09:41:47;15.43;;;11.50;;
19735;SDS011;32064;49.310;8.646;2022-12-05T09:52:27;16.93;;;11.70;;
19735;SDS011;32064;49.310;8.646;2022-12-05T09:54:57;13.07;;;10.83;;
19735;SDS011;32064;49.310;8.646;2022-12-05T09:57:36;15.57;;;11.17;;
19735;SDS011;32064;49.310;8.646;2022-12-05T10:00:08;13.73;;;11.17;;
19735;SDS011;32064;49.310;8.646;2022-12-05T10:05:05;14.83;;;11.00;;
19735;SDS011;32064;49.310;8.646;2022-12-05T10:15:44;14.03;;;11.03;;
19735;SDS011;32064;49.310;8.646;2022-12-05T10:18:20;14.53;;;10.77;;
19735;SDS011;32064;49.310;8.646;2022-12-05T10:21:23;14.13;;;10.93;;
19735;SDS011;32064;49.310;8.646;2022-12-05T10:23:56;13.50;;;10.13;;
19735;SDS011;32064;49.310;8.646;2022-12-05T10:26:29;13.53;;;10.47;;
19735;SDS011;32064;49.310;8.646;2022-12-05T10:31:37;16.60;;;11.70;;
19735;SDS011;32064;49.310;8.646;2022-12-05T10:34:17;15.23;;;11.40;;
19735;SDS011;32064;49.310;8.646;2022-12-05T10:36:54;16.00;;;12.07;;
19735;SDS011;32064;49.310;8.646;2022-12-05T10:39:24;15.17;;;11.27;;
19735;SDS011;32064;49.310;8.646;2022-12-05T10:41:49;19.47;;;12.20;;
19735;SDS011;32064;49.310;8.646;2022-12-05T10:44:15;16.20;;;10.87;;
19735;SDS011;32064;49.310;8.646;2022-12-05T10:46:40;14.70;;;10.60;;
19735;SDS011;32064;49.310;8.646;2022-12-05T10:49:12;13.67;;;10.47;;
19735;SDS011;32064;49.310;8.646;2022-12-05T10:51:38;13.43;;;10.50;;
19735;SDS011;32064;49.310;8.646;2022-12-05T10:54:12;14.47;;;11.33;;
19735;SDS011;32064;49.310;8.646;2022-12-05T10:56:45;15.70;;;11.57;;
19735;SDS011;32064;49.310;8.646;2022-12-05T10:59:22;16.87;;;12.17;;
19735;SDS011;32064;49.310;8.646;2022-12-05T11:01:54;13.90;;;10.87;;
19735;SDS011;32064;49.310;8.646;2022-12-05T11:04:22;16.30;;;10.87;;
19735;SDS011;32064;49.310;8.646;2022-12-05T11:06:49;16.87;;;13.23;;
19735;SDS011;32064;49.310;8.646;2022-12-05T11:09:21;16.90;;;12.87;;
19735;SDS011;32064;49.310;8.646;2022-12-05T11:12:00;19.27;;;12.87;;
19735;SDS011;32064;49.310;8.646;2022-12-05T11:14:29;16.27;;;11.50;;
19735;SDS011;32064;49.310;8.646;2022-12-05T11:16:58;13.60;;;11.70;;
19735;SDS011;32064;49.310;8.646;2022-12-05T11:19:29;16.37;;;11.70;;
19735;SDS011;32064;49.310;8.646;2022-12-05T11:22:00;17.17;;;12.30;;
19735;SDS011;32064;49.310;8.646;2022-12-05T11:24:35;13.03;;;10.13;;
19735;SDS011;32064;49.310;8.646;2022-12-05T11:29:39;16.00;;;11.40;;
19735;SDS011;32064;49.310;8.646;2022-12-05T11:32:16;15.70;;;11.70;;
19735;SDS011;32064;49.310;8.646;2022-12-05T11:34:48;17.77;;;12.07;;
19735;SDS011;32064;49.310;8.646;2022-12-05T11:37:22;21.83;;;14.77;;
19735;SDS011;32064;49.310;8.646;2022-12-05T11:39:50;19.10;;;12.50;;
19735;SDS011;32064;49.310;8.646;2022-12-05T11:42:38;15.57;;;12.03;;
19735;SDS011;32064;49.310;8.646;2022-12-05T11:45:23;16.87;;;12.23;;
19735;SDS011;32064;49.310;8.646;2022-12-05T11:48:05;16.13;;;12.20;;
19735;SDS011;32064;49.310;8.646;2022-12-05T12:04:46;17.33;;;12.83;;
19735;SDS011;32064;49.310;8.646;2022-12-05T12:12:34;21.73;;;17.27;;
19735;SDS011;32064;49.310;8.646;2022-12-05T12:29:49;19.93;;;15.30;;
19735;SDS011;32064;49.310;8.646;2022-12-05T12:34:59;15.37;;;11.40;;
19735;SDS011;32064;49.310;8.646;2022-12-05T12:50:54;21.90;;;16.07;;
19735;SDS011;32064;49.310;8.646;2022-12-05T12:53:30;16.23;;;12.40;;
19735;SDS011;32064;49.310;8.646;2022-12-05T13:04:04;18.10;;;14.27;;
19735;SDS011;32064;49.310;8.646;2022-12-05T13:09:19;20.00;;;16.10;;
19735;SDS011;32064;49.310;8.646;2022-12-05T13:12:09;24.93;;;18.47;;
19735;SDS011;32064;49.310;8.646;2022-12-05T13:14:37;19.13;;;14.07;;
19735;SDS011;32064;49.310;8.646;2022-12-05T13:17:05;20.07;;;15.10;;
19735;SDS011;32064;49.310;8.646;2022-12-05T13:19:45;17.43;;;13.43;;
19735;SDS011;32064;49.310;8.646;2022-12-05T13:22:14;16.47;;;12.07;;
19735;SDS011;32064;49.310;8.646;2022-12-05T13:24:42;13.80;;;11.53;;
19735;SDS011;32064;49.310;8.646;2022-12-05T13:27:08;16.93;;;13.47;;
19735;SDS011;32064;49.310;8.646;2022-12-05T13:29:42;14.87;;;11.60;;
19735;SDS011;32064;49.310;8.646;2022-12-05T13:32:34;15.07;;;11.63;;
19735;SDS011;32064;49.310;8.646;2022-12-05T13:35:15;12.57;;;10.63;;
19735;SDS011;32064;49.310;8.646;2022-12-05T13:38:02;15.47;;;12.33;;
19735;SDS011;32064;49.310;8.646;2022-12-05T13:40:49;15.20;;;11.83;;
19735;SDS011;32064;49.310;8.646;2022-12-05T13:43:40;14.60;;;10.73;;
19735;SDS011;32064;49.310;8.646;2022-12-05T13:46:10;16.83;;;10.90;;
19735;SDS011;32064;49.310;8.646;2022-12-05T13:48:43;13.57;;;9.80;;
19735;SDS011;32064;49.310;8.646;2022-12-05T13:53:44;15.40;;;10.80;;
19735;SDS011;32064;49.310;8.646;2022-12-05T13:58:42;11.87;;;10.60;;
19735;SDS011;32064;49.310;8.646;2022-12-05T14:09:47;15.00;;;11.97;;
19735;SDS011;32064;49.310;8.646;2022-12-05T14:17:28;10.90;;;9.67;;
19735;SDS011;32064;49.310;8.646;2022-12-05T14:19:58;16.97;;;11.13;;
19735;SDS011;32064;49.310;8.646;2022-12-05T14:23:00;14.20;;;10.70;;
19735;SDS011;32064;49.310;8.646;2022-12-05T14:33:37;10.77;;;8.73;;
19735;SDS011;32064;49.310;8.646;2022-12-05T14:36:06;10.40;;;7.87;;
19735;SDS011;32064;49.310;8.646;2022-12-05T14:38:39;7.20;;;6.40;;
19735;SDS011;32064;49.310;8.646;2022-12-05T14:41:10;7.40;;;5.90;;
19735;SDS011;32064;49.310;8.646;2022-12-05T14:43:39;9.10;;;6.50;;
19735;SDS011;32064;49.310;8.646;2022-12-05T14:46:07;8.47;;;6.47;;
19735;SDS011;32064;49.310;8.646;2022-12-05T14:48:41;11.33;;;8.37;;
19735;SDS011;32064;49.310;8.646;2022-12-05T14:53:54;7.33;;;5.60;;
19735;SDS011;32064;49.310;8.646;2022-12-05T14:56:21;6.10;;;5.03;;
19735;SDS011;32064;49.310;8.646;2022-12-05T15:01:44;9.53;;;8.13;;
19735;SDS011;32064;49.310;8.646;2022-12-05T15:06:58;6.23;;;4.93;;
19735;SDS011;32064;49.310;8.646;2022-12-05T15:12:05;5.87;;;4.00;;
19735;SDS011;32064;49.310;8.646;2022-12-05T15:14:39;4.20;;;3.73;;
19735;SDS011;32064;49.310;8.646;2022-12-05T15:17:13;4.07;;;3.53;;
19735;SDS011;32064;49.310;8.646;2022-12-05T15:19:44;4.97;;;3.57;;
19735;SDS011;32064;49.310;8.646;2022-12-05T15:22:17;3.77;;;3.40;;
19735;SDS011;32064;49.310;8.646;2022-12-05T15:24:45;3.43;;;3.03;;
19735;SDS011;32064;49.310;8.646;2022-12-05T15:27:10;6.40;;;4.60;;
19735;SDS011;32064;49.310;8.646;2022-12-05T15:29:37;6.23;;;4.40;;
19735;SDS011;32064;49.310;8.646;2022-12-05T15:32:13;4.80;;;3.93;;
19735;SDS011;32064;49.310;8.646;2022-12-05T15:42:36;2.93;;;2.63;;
19735;SDS011;32064;49.310;8.646;2022-12-05T15:47:36;2.83;;;2.40;;
19735;SDS011;32064;49.310;8.646;2022-12-05T15:50:02;2.47;;;2.27;;
19735;SDS011;32064;49.310;8.646;2022-12-05T15:52:43;2.20;;;2.00;;
19735;SDS011;32064;49.310;8.646;2022-12-05T15:55:15;2.57;;;2.00;;
19735;SDS011;32064;49.310;8.646;2022-12-05T16:00:45;4.03;;;3.00;;
19735;SDS011;32064;49.310;8.646;2022-12-05T16:03:23;3.37;;;2.80;;
19735;SDS011;32064;49.310;8.646;2022-12-05T16:05:57;4.77;;;3.37;;
19735;SDS011;32064;49.310;8.646;2022-12-05T16:08:27;3.23;;;2.93;;
19735;SDS011;32064;49.310;8.646;2022-12-05T16:11:10;3.20;;;2.90;;
19735;SDS011;32064;49.310;8.646;2022-12-05T16:16:37;4.70;;;3.50;;
19735;SDS011;32064;49.310;8.646;2022-12-05T16:19:04;8.73;;;3.20;;
19735;SDS011;32064;49.310;8.646;2022-12-05T16:21:45;7.13;;;3.17;;
19735;SDS011;32064;49.310;8.646;2022-12-05T16:24:26;3.53;;;3.10;;
19735;SDS011;32064;49.310;8.646;2022-12-05T16:27:01;3.60;;;3.30;;
19735;SDS011;32064;49.310;8.646;2022-12-05T16:29:31;5.30;;;3.53;;
19735;SDS011;32064;49.310;8.646;2022-12-05T16:32:02;4.57;;;3.17;;
19735;SDS011;32064;49.310;8.646;2022-12-05T16:34:31;4.73;;;3.93;;
19735;SDS011;32064;49.310;8.646;2022-12-05T16:36:57;4.83;;;3.93;;
19735;SDS011;32064;49.310;8.646;2022-12-05T16:39:24;4.80;;;4.07;;
19735;SDS011;32064;49.310;8.646;2022-12-05T16:41:52;7.17;;;4.60;;
19735;SDS011;32064;49.310;8.646;2022-12-05T16:47:22;6.10;;;4.10;;
19735;SDS011;32064;49.310;8.646;2022-12-05T16:49:49;5.23;;;4.20;;
19735;SDS011;32064;49.310;8.646;2022-12-05T16:52:15;4.87;;;3.97;;
19735;SDS011;32064;49.310;8.646;2022-12-05T16:54:45;5.20;;;4.63;;
19735;SDS011;32064;49.310;8.646;2022-12-05T16:57:12;6.60;;;5.43;;
19735;SDS011;32064;49.310;8.646;2022-12-05T16:59:40;10.43;;;7.67;;
19735;SDS011;32064;49.310;8.646;2022-12-05T17:02:11;9.80;;;7.60;;
19735;SDS011;32064;49.310;8.646;2022-12-05T17:04:39;9.93;;;8.73;;
19735;SDS011;32064;49.310;8.646;2022-12-05T17:07:04;10.60;;;8.00;;
19735;SDS011;32064;49.310;8.646;2022-12-05T17:09:29;8.80;;;6.90;;
19735;SDS011;32064;49.310;8.646;2022-12-05T17:11:59;10.03;;;7.63;;
19735;SDS011;32064;49.310;8.646;2022-12-05T17:14:29;8.30;;;6.63;;
19735;SDS011;32064;49.310;8.646;2022-12-05T17:16:54;7.87;;;5.47;;
19735;SDS011;32064;49.310;8.646;2022-12-05T17:19:19;7.20;;;5.87;;
19735;SDS011;32064;49.310;8.646;2022-12-05T17:21:45;8.27;;;6.43;;
19735;SDS011;32064;49.310;8.646;2022-12-05T17:24:17;9.03;;;7.23;;
19735;SDS011;32064;49.310;8.646;2022-12-05T17:26:43;6.00;;;4.80;;
19735;SDS011;32064;49.310;8.646;2022-12-05T17:29:09;10.10;;;6.33;;
19735;SDS011;32064;49.310;8.646;2022-12-05T17:31:35;7.70;;;5.70;;
19735;SDS011;32064;49.310;8.646;2022-12-05T17:34:01;9.67;;;5.87;;
19735;SDS011;32064;49.310;8.646;2022-12-05T17:36:26;8.87;;;5.83;;
19735;SDS011;32064;49.310;8.646;2022-12-05T17:38:52;9.30;;;6.17;;